createdAt,value
2022-12-03T00:02:14.048Z,1.67
2022-12-03T00:04:40.452Z,1.66
2022-12-03T00:07:06.806Z,1.66
2022-12-03T00:09:33.201Z,1.64
2022-12-03T00:11:59.569Z,1.64
2022-12-03T00:14:25.954Z,1.66
2022-12-03T00:16:52.368Z,1.65
2022-12-03T00:19:18.724Z,1.65
2022-12-03T00:21:45.070Z,1.66
2022-12-03T00:24:11.455Z,1.64
2022-12-03T00:26:37.822Z,1.63
2022-12-03T00:29:04.235Z,1.65
2022-12-03T00:31:30.607Z,1.65
2022-12-03T00:33:57.012Z,1.65
2022-12-03T00:36:23.385Z,1.64
2022-12-03T00:38:49.787Z,1.64
2022-12-03T00:41:16.181Z,1.63
2022-12-03T00:43:42.596Z,1.62
2022-12-03T00:46:09.621Z,1.62
2022-12-03T00:48:36.077Z,1.62
2022-12-03T00:51:02.734Z,1.60
2022-12-03T00:53:29.180Z,1.59
2022-12-03T00:55:55.574Z,1.58
2022-12-03T00:58:21.955Z,1.55
2022-12-03T01:00:48.349Z,1.55
2022-12-03T01:03:14.743Z,1.55
2022-12-03T01:05:41.131Z,1.55
2022-12-03T01:08:07.560Z,1.56
2022-12-03T01:10:33.940Z,1.57
2022-12-03T01:13:00.274Z,1.57
2022-12-03T01:15:26.633Z,1.58
2022-12-03T01:17:54.263Z,1.56
2022-12-03T01:20:20.872Z,1.56
2022-12-03T01:22:47.257Z,1.57
2022-12-03T01:25:13.619Z,1.57
2022-12-03T01:27:39.961Z,1.59
2022-12-03T01:30:07.314Z,1.59
2022-12-03T01:32:33.795Z,1.60
2022-12-03T01:35:00.341Z,1.60
2022-12-03T01:37:27.017Z,1.60
2022-12-03T01:39:53.538Z,1.60
2022-12-03T01:42:24.588Z,1.62
2022-12-03T01:44:53.518Z,1.62
2022-12-03T01:47:24.536Z,1.62
2022-12-03T01:49:52.549Z,1.64
2022-12-03T01:52:23.946Z,1.64
2022-12-03T01:54:56.094Z,1.64
2022-12-03T01:57:24.957Z,1.66
2022-12-03T01:59:52.672Z,1.66
2022-12-03T02:02:25.393Z,1.65
2022-12-03T02:04:55.991Z,1.68
2022-12-03T02:07:28.975Z,1.68
2022-12-03T02:09:57.662Z,1.69
2022-12-03T02:12:43.957Z,1.70
2022-12-03T02:15:11.008Z,1.72
2022-12-03T02:17:37.794Z,1.71
2022-12-03T02:20:08.588Z,1.72
2022-12-03T02:23:04.904Z,1.72
2022-12-03T02:25:34.577Z,1.73
2022-12-03T02:28:01.777Z,1.74
2022-12-03T02:30:29.998Z,1.75
2022-12-03T02:32:56.719Z,1.75
2022-12-03T02:35:26.111Z,1.76
2022-12-03T02:37:58.337Z,1.77
2022-12-03T02:40:28.798Z,1.77
2022-12-03T02:42:58.950Z,1.77
2022-12-03T02:45:39.378Z,1.78
2022-12-03T02:48:14.743Z,1.79
2022-12-03T02:50:43.932Z,1.80
2022-12-03T02:53:16.959Z,1.81
2022-12-03T02:55:44.033Z,1.81
2022-12-03T02:58:11.687Z,1.83
2022-12-03T03:00:38.566Z,1.82
2022-12-03T03:03:07.855Z,1.82
2022-12-03T03:05:36.589Z,1.84
2022-12-03T03:08:03.965Z,1.84
2022-12-03T03:10:30.882Z,1.85
2022-12-03T03:12:57.371Z,1.85
2022-12-03T03:15:25.151Z,1.86
2022-12-03T03:17:51.961Z,1.87
2022-12-03T03:20:18.819Z,1.88
2022-12-03T03:22:45.235Z,1.87
2022-12-03T03:25:16.951Z,1.88
2022-12-03T03:27:45.098Z,1.89
2022-12-03T03:30:13.058Z,1.90
2022-12-03T03:32:40.697Z,1.90
2022-12-03T03:35:08.845Z,1.92
2022-12-03T03:37:35.482Z,1.93
2022-12-03T03:40:02.268Z,1.92
2022-12-03T03:42:28.787Z,1.94
2022-12-03T03:44:55.433Z,1.95
2022-12-03T03:47:23.746Z,1.95
2022-12-03T03:49:50.799Z,1.96
2022-12-03T03:52:19.542Z,1.96
2022-12-03T03:54:46.823Z,1.96
2022-12-03T03:57:13.208Z,1.96
2022-12-03T03:59:39.915Z,1.97
2022-12-03T04:02:06.294Z,1.99
2022-12-03T04:04:36.507Z,2.00
2022-12-03T04:07:02.971Z,2.00
2022-12-03T04:09:29.324Z,2.02
2022-12-03T04:12:14.086Z,2.01
2022-12-03T04:14:40.410Z,2.02
2022-12-03T04:17:06.765Z,2.02
2022-12-03T04:19:33.129Z,2.02
2022-12-03T04:22:17.850Z,2.03
2022-12-03T04:24:44.167Z,2.02
2022-12-03T04:27:29.003Z,2.03
2022-12-03T04:29:55.361Z,2.03
2022-12-03T04:32:40.450Z,2.04
2022-12-03T04:35:25.743Z,2.04
2022-12-03T04:37:52.141Z,2.03
2022-12-03T04:40:37.061Z,2.02
2022-12-03T04:43:03.413Z,2.04
2022-12-03T04:45:29.759Z,2.03
2022-12-03T04:47:56.093Z,2.04
2022-12-03T04:50:22.402Z,2.03
2022-12-03T04:52:48.727Z,2.02
2022-12-03T04:55:15.165Z,2.03
2022-12-03T04:57:41.532Z,2.03
2022-12-03T05:00:08.422Z,2.03
2022-12-03T05:02:34.737Z,2.03
2022-12-03T05:05:01.164Z,2.03
2022-12-03T05:07:27.553Z,2.03
2022-12-03T05:09:53.953Z,2.03
2022-12-03T05:12:20.360Z,2.02
2022-12-03T05:14:46.663Z,2.02
2022-12-03T05:17:13.033Z,2.01
2022-12-03T05:19:57.698Z,1.99
2022-12-03T05:22:24.001Z,1.98
2022-12-03T05:24:50.399Z,1.96
2022-12-03T05:27:23.201Z,1.97
2022-12-03T05:29:50.135Z,1.96
2022-12-03T05:32:16.583Z,1.94
2022-12-03T05:34:42.885Z,1.93
2022-12-03T05:37:09.212Z,1.93
2022-12-03T05:39:35.574Z,1.92
2022-12-03T05:42:20.457Z,1.89
2022-12-03T05:44:46.755Z,1.89
2022-12-03T05:47:13.211Z,1.88
2022-12-03T05:49:39.714Z,1.87
2022-12-03T05:52:06.372Z,1.88
2022-12-03T05:54:32.801Z,1.87
2022-12-03T05:56:59.156Z,1.87
2022-12-03T05:59:25.645Z,1.87
2022-12-03T06:01:52.026Z,1.84
2022-12-03T06:04:18.413Z,1.85
2022-12-03T06:06:44.781Z,1.84
2022-12-03T06:09:11.077Z,1.85
2022-12-03T06:11:37.421Z,1.85
2022-12-03T06:14:03.807Z,1.84
2022-12-03T06:16:30.177Z,1.83
2022-12-03T06:18:56.505Z,1.84
2022-12-03T06:21:22.850Z,1.84
2022-12-03T06:23:49.182Z,1.84
2022-12-03T06:26:15.598Z,1.83
2022-12-03T06:28:47.463Z,1.83
2022-12-03T06:31:14.180Z,1.83
2022-12-03T06:33:40.621Z,1.82
2022-12-03T06:36:07.265Z,1.82
2022-12-03T06:38:33.641Z,1.81
2022-12-03T06:40:59.954Z,1.81
2022-12-03T06:43:26.456Z,1.79
2022-12-03T06:45:52.889Z,1.80
2022-12-03T06:48:19.209Z,1.79
2022-12-03T06:50:45.494Z,1.79
2022-12-03T06:53:11.837Z,1.77
2022-12-03T06:55:38.186Z,1.75
2022-12-03T06:58:04.534Z,1.73
2022-12-03T07:00:30.931Z,1.74
2022-12-03T07:02:57.329Z,1.72
2022-12-03T07:05:23.711Z,1.73
2022-12-03T07:07:52.146Z,1.72
2022-12-03T07:10:19.102Z,1.72
2022-12-03T07:12:45.434Z,1.71
2022-12-03T07:15:12.048Z,1.71
2022-12-03T07:17:38.446Z,1.69
2022-12-03T07:20:05.586Z,1.68
2022-12-03T07:22:31.957Z,1.68
2022-12-03T07:24:58.331Z,1.68
2022-12-03T07:27:24.665Z,1.67
2022-12-03T07:29:51.084Z,1.66
2022-12-03T07:32:17.487Z,1.62
2022-12-03T07:34:43.826Z,1.63
2022-12-03T07:37:10.138Z,1.61
2022-12-03T07:39:36.497Z,1.61
2022-12-03T07:42:02.840Z,1.60
2022-12-03T07:44:31.582Z,1.60
2022-12-03T07:46:59.198Z,1.60
2022-12-03T07:49:26.717Z,1.62
2022-12-03T07:51:56.947Z,1.61
2022-12-03T07:54:24.195Z,1.61
2022-12-03T07:56:50.581Z,1.59
2022-12-03T07:59:17.473Z,1.57
2022-12-03T08:01:44.366Z,1.56
2022-12-03T08:04:12.828Z,1.56
2022-12-03T08:06:39.274Z,1.54
2022-12-03T08:09:05.592Z,1.56
2022-12-03T08:11:33.080Z,1.54
2022-12-03T08:13:59.630Z,1.53
2022-12-03T08:16:26.979Z,1.52
2022-12-03T08:18:57.395Z,1.53
2022-12-03T08:21:23.760Z,1.54
2022-12-03T08:23:50.133Z,1.54
2022-12-03T08:26:24.013Z,1.52
2022-12-03T08:28:52.078Z,1.52
2022-12-03T08:31:32.413Z,1.53
2022-12-03T08:34:15.081Z,1.52
2022-12-03T08:36:41.523Z,1.49
2022-12-03T08:39:33.560Z,1.47
2022-12-03T08:42:30.647Z,1.44
2022-12-03T08:45:00.310Z,1.43
2022-12-03T08:47:29.161Z,1.41
2022-12-03T08:49:58.788Z,1.41
2022-12-03T08:52:33.201Z,1.41
2022-12-03T08:55:02.687Z,1.41
2022-12-03T08:57:34.401Z,1.41
2022-12-03T09:00:22.859Z,1.42
2022-12-03T09:02:54.422Z,1.42
2022-12-03T09:05:23.840Z,1.41
2022-12-03T09:07:50.245Z,1.43
2022-12-03T09:10:16.698Z,1.42
2022-12-03T09:12:58.158Z,1.40
2022-12-03T09:15:24.542Z,1.36
2022-12-03T09:17:50.930Z,1.39
2022-12-03T09:20:17.433Z,1.41
2022-12-03T09:22:43.827Z,1.38
2022-12-03T09:25:10.164Z,1.38
2022-12-03T09:27:36.798Z,1.39
2022-12-03T09:30:04.205Z,1.35
2022-12-03T09:32:30.583Z,1.36
2022-12-03T09:34:57.213Z,1.36
2022-12-03T09:37:23.639Z,1.34
2022-12-03T09:39:50.011Z,1.30
2022-12-03T09:42:16.440Z,1.25
2022-12-03T09:44:43.779Z,1.25
2022-12-03T09:47:10.193Z,1.27
2022-12-03T09:49:38.754Z,1.32
2022-12-03T09:52:06.745Z,1.35
2022-12-03T09:54:33.648Z,1.36
2022-12-03T09:57:02.564Z,1.34
2022-12-03T09:59:34.601Z,1.33
2022-12-03T10:02:01.980Z,1.31
2022-12-03T10:04:29.737Z,1.31
2022-12-03T10:06:58.221Z,1.30
2022-12-03T10:09:28.036Z,1.30
2022-12-03T10:11:56.302Z,1.35
2022-12-03T10:14:22.849Z,1.36
2022-12-03T10:16:49.720Z,1.34
2022-12-03T10:19:24.390Z,1.29
2022-12-03T10:21:50.853Z,1.27
2022-12-03T10:24:17.169Z,1.22
2022-12-03T10:26:45.899Z,1.20
2022-12-03T10:29:19.436Z,1.16
2022-12-03T10:31:54.523Z,1.13
2022-12-03T10:34:25.926Z,1.10
2022-12-03T10:37:11.098Z,1.10
2022-12-03T10:39:56.222Z,1.04
2022-12-03T10:42:23.802Z,1.01
2022-12-03T10:45:07.790Z,1.00
2022-12-03T10:47:34.212Z,1.05
2022-12-03T10:50:07.273Z,1.07
2022-12-03T10:52:33.719Z,1.06
2022-12-03T10:55:00.112Z,1.00
2022-12-03T10:57:26.600Z,0.97
2022-12-03T10:59:52.970Z,0.94
2022-12-03T11:02:23.155Z,0.92
2022-12-03T11:04:50.277Z,0.94
2022-12-03T11:07:21.701Z,0.92
2022-12-03T11:09:51.126Z,0.92
2022-12-03T11:12:26.272Z,0.87
2022-12-03T11:14:53.954Z,0.84
2022-12-03T11:17:40.767Z,0.83
2022-12-03T11:20:20.940Z,0.81
2022-12-03T11:22:50.336Z,0.84
2022-12-03T11:25:25.951Z,0.83
2022-12-03T11:28:10.325Z,0.88
2022-12-03T11:30:49.083Z,0.87
2022-12-03T11:33:30.382Z,0.89
2022-12-03T11:36:02.816Z,0.92
2022-12-03T11:38:38.284Z,0.91
2022-12-03T11:41:12.943Z,0.94
2022-12-03T11:43:57.243Z,0.97
2022-12-03T11:46:27.619Z,0.96
2022-12-03T11:48:56.364Z,0.95
2022-12-03T11:51:25.817Z,0.94
2022-12-03T11:53:54.920Z,0.95
2022-12-03T11:56:25.382Z,0.91
2022-12-03T11:59:02.534Z,0.93
2022-12-03T12:01:39.129Z,0.94
2022-12-03T12:04:07.525Z,0.92
2022-12-03T12:06:42.583Z,0.91
2022-12-03T12:09:09.518Z,0.89
2022-12-03T12:11:40.381Z,0.89
2022-12-03T12:14:08.641Z,0.86
2022-12-03T12:16:51.619Z,0.88
2022-12-03T12:19:40.243Z,0.87
2022-12-03T12:22:29.837Z,0.86
2022-12-03T12:25:05.014Z,0.86
2022-12-03T12:27:46.806Z,0.89
2022-12-03T12:33:23.241Z,0.94
2022-12-03T12:36:00.856Z,0.91
2022-12-03T12:38:37.282Z,0.90
2022-12-03T12:41:26.834Z,0.87
2022-12-03T12:43:54.035Z,0.89
2022-12-03T12:46:47.166Z,0.90
2022-12-03T12:49:15.714Z,0.90
2022-12-03T12:51:47.047Z,0.87
2022-12-03T12:54:15.038Z,0.86
2022-12-03T12:56:44.134Z,0.88
2022-12-03T12:59:24.327Z,0.85
2022-12-03T13:01:50.865Z,0.82
2022-12-03T13:04:24.129Z,0.87
2022-12-03T13:06:53.329Z,0.87
2022-12-03T13:09:22.817Z,0.87
2022-12-03T13:12:00.994Z,0.81
2022-12-03T13:14:34.869Z,0.79
2022-12-03T13:17:10.154Z,0.77
2022-12-03T13:20:03.282Z,0.76
2022-12-03T13:22:27.853Z,0.77
2022-12-03T13:24:57.261Z,0.78
2022-12-03T13:27:31.028Z,0.73
2022-12-03T13:30:13.650Z,0.72
2022-12-03T13:32:41.992Z,0.72
2022-12-03T13:35:31.427Z,0.74
2022-12-03T13:37:59.039Z,0.74
2022-12-03T13:40:31.329Z,0.75
2022-12-03T13:42:58.331Z,0.70
2022-12-03T13:45:38.278Z,0.69
2022-12-03T13:48:20.026Z,0.69
2022-12-03T13:50:46.446Z,0.63
2022-12-03T13:53:22.069Z,0.60
2022-12-03T13:55:51.732Z,0.57
2022-12-03T13:58:18.135Z,0.56
2022-12-03T14:00:44.969Z,0.51
2022-12-03T14:03:11.641Z,0.44
2022-12-03T14:05:38.118Z,0.40
2022-12-03T14:08:05.933Z,0.38
2022-12-03T14:10:32.399Z,0.35
2022-12-03T14:12:58.871Z,0.32
2022-12-03T14:15:26.420Z,0.32
2022-12-03T14:17:52.898Z,0.30
2022-12-03T14:20:19.758Z,0.29
2022-12-03T14:22:46.135Z,0.28
2022-12-03T14:25:12.521Z,0.26
2022-12-03T14:27:38.888Z,0.25
2022-12-03T14:30:06.085Z,0.26
2022-12-03T14:32:32.430Z,0.30
2022-12-03T14:34:58.750Z,0.37
2022-12-03T14:37:25.141Z,0.40
2022-12-03T14:39:51.766Z,0.41
2022-12-03T14:42:18.373Z,0.43
2022-12-03T14:44:50.313Z,0.45
2022-12-03T14:47:19.979Z,0.46
2022-12-03T14:49:46.551Z,0.42
2022-12-03T14:52:13.109Z,0.41
2022-12-03T14:54:42.471Z,0.40
2022-12-03T14:57:11.367Z,0.38
2022-12-03T14:59:37.918Z,0.38
2022-12-03T15:02:04.354Z,0.36
2022-12-03T15:04:30.845Z,0.39
2022-12-03T15:06:57.205Z,0.39
2022-12-03T15:09:23.657Z,0.40
2022-12-03T15:11:50.086Z,0.40
2022-12-03T15:14:16.502Z,0.43
2022-12-03T15:16:42.902Z,0.40
2022-12-03T15:19:09.393Z,0.38
2022-12-03T15:21:35.822Z,0.38
2022-12-03T15:24:03.052Z,0.38
2022-12-03T15:26:29.915Z,0.40
2022-12-03T15:28:56.279Z,0.39
2022-12-03T15:31:22.680Z,0.36
2022-12-03T15:33:49.067Z,0.34
2022-12-03T15:36:15.452Z,0.33
2022-12-03T15:38:41.857Z,0.31
2022-12-03T15:41:26.734Z,0.29
2022-12-03T15:43:53.249Z,0.28
2022-12-03T15:46:20.361Z,0.24
2022-12-03T15:48:47.764Z,0.24
2022-12-03T15:51:14.843Z,0.21
2022-12-03T15:53:41.417Z,0.21
2022-12-03T15:56:08.349Z,0.22
2022-12-03T15:58:35.154Z,0.22
2022-12-03T16:01:01.620Z,0.22
2022-12-03T16:03:28.126Z,0.16
2022-12-03T16:05:54.636Z,0.14
2022-12-03T16:08:21.144Z,0.16
2022-12-03T16:10:47.645Z,0.17
2022-12-03T16:13:14.034Z,0.19
2022-12-03T16:15:40.513Z,0.18
2022-12-03T16:18:07.037Z,0.18
2022-12-03T16:20:33.392Z,0.18
2022-12-03T16:22:59.681Z,0.16
2022-12-03T16:25:26.081Z,0.14
2022-12-03T16:27:52.433Z,0.12
2022-12-03T16:30:19.005Z,0.14
2022-12-03T16:32:45.311Z,0.16
2022-12-03T16:35:11.632Z,0.15
2022-12-03T16:37:37.966Z,0.14
2022-12-03T16:40:04.816Z,0.13
2022-12-03T16:42:31.158Z,0.15
2022-12-03T16:45:03.099Z,0.14
2022-12-03T16:47:33.848Z,0.16
2022-12-03T16:50:06.429Z,0.14
2022-12-03T16:52:33.029Z,0.13
2022-12-03T16:54:59.386Z,0.12
2022-12-03T16:57:31.746Z,0.11
2022-12-03T16:59:59.864Z,0.10
2022-12-03T17:02:27.431Z,0.07
2022-12-03T17:04:53.889Z,0.09
2022-12-03T17:07:20.191Z,0.09
2022-12-03T17:09:46.622Z,0.08
2022-12-03T17:12:12.968Z,0.08
2022-12-03T17:14:39.374Z,0.08
2022-12-03T17:17:05.709Z,0.06
2022-12-03T17:19:32.022Z,0.08
2022-12-03T17:21:59.694Z,0.07
2022-12-03T17:24:26.075Z,0.05
2022-12-03T17:26:52.511Z,0.04
2022-12-03T17:29:18.921Z,0.07
2022-12-03T17:31:45.386Z,0.06
2022-12-03T17:34:11.828Z,0.08
2022-12-03T17:36:38.194Z,0.05
2022-12-03T17:39:04.602Z,0.05
2022-12-03T17:41:30.920Z,0.02
2022-12-03T17:43:57.237Z,0.01
2022-12-03T17:46:23.641Z,-0.01
2022-12-03T17:48:50.035Z,-0.02
2022-12-03T17:51:16.441Z,-0.03
2022-12-03T17:53:42.827Z,-0.02
2022-12-03T17:56:09.457Z,-0.03
2022-12-03T17:58:35.810Z,-0.06
2022-12-03T18:01:03.256Z,-0.07
2022-12-03T18:03:30.233Z,-0.04
2022-12-03T18:05:56.741Z,-0.06
2022-12-03T18:08:23.290Z,-0.06
2022-12-03T18:10:49.814Z,-0.06
2022-12-03T18:13:16.245Z,-0.04
2022-12-03T18:15:42.594Z,-0.04
2022-12-03T18:18:09.018Z,-0.05
2022-12-03T18:20:35.667Z,-0.08
2022-12-03T18:23:02.275Z,-0.11
2022-12-03T18:25:29.145Z,-0.09
2022-12-03T18:27:55.989Z,-0.09
2022-12-03T18:30:22.606Z,-0.09
2022-12-03T18:32:50.559Z,-0.09
2022-12-03T18:35:17.132Z,-0.08
2022-12-03T18:37:43.577Z,-0.08
2022-12-03T18:40:18.549Z,-0.10
2022-12-03T18:42:44.876Z,-0.11
2022-12-03T18:45:13.026Z,-0.12
2022-12-03T18:47:39.578Z,-0.13
2022-12-03T18:50:07.147Z,-0.14
2022-12-03T18:52:33.854Z,-0.13
2022-12-03T18:55:00.217Z,-0.10
2022-12-03T18:57:26.600Z,-0.12
2022-12-03T18:59:53.406Z,-0.12
2022-12-03T19:03:01.936Z,-0.11
2022-12-03T19:05:10.253Z,-0.10
2022-12-03T19:07:36.965Z,-0.10
2022-12-03T19:10:03.933Z,-0.10
2022-12-03T19:12:31.062Z,-0.11
2022-12-03T19:14:57.431Z,-0.13
2022-12-03T19:17:23.814Z,-0.13
2022-12-03T19:19:50.137Z,-0.13
2022-12-03T19:22:16.516Z,-0.13
2022-12-03T19:24:43.664Z,-0.13
2022-12-03T19:27:10.013Z,-0.13
2022-12-03T19:29:36.343Z,-0.18
2022-12-03T19:32:02.733Z,-0.17
2022-12-03T19:34:29.270Z,-0.18
2022-12-03T19:36:55.769Z,-0.21
2022-12-03T19:39:22.257Z,-0.21
2022-12-03T19:41:48.574Z,-0.22
2022-12-03T19:44:16.419Z,-0.24
2022-12-03T19:46:43.496Z,-0.24
2022-12-03T19:49:10.597Z,-0.24
2022-12-03T19:51:37.052Z,-0.24
2022-12-03T19:54:08.096Z,-0.24
2022-12-03T19:56:34.730Z,-0.25
2022-12-03T19:59:01.086Z,-0.26
2022-12-03T20:01:29.793Z,-0.28
2022-12-03T20:03:58.490Z,-0.28
2022-12-03T20:06:28.166Z,-0.29
2022-12-03T20:09:04.056Z,-0.30
2022-12-03T20:11:32.461Z,-0.29
2022-12-03T20:14:02.069Z,-0.30
2022-12-03T20:16:29.387Z,-0.30
2022-12-03T20:18:58.633Z,-0.29
2022-12-03T20:21:25.445Z,-0.30
2022-12-03T20:23:51.918Z,-0.30
2022-12-03T20:26:20.101Z,-0.31
2022-12-03T20:28:50.301Z,-0.30
2022-12-03T20:31:19.485Z,-0.32
2022-12-03T20:33:48.222Z,-0.30
2022-12-03T20:36:16.359Z,-0.32
2022-12-03T20:38:43.498Z,-0.34
2022-12-03T20:41:14.531Z,-0.30
2022-12-03T20:43:41.192Z,-0.32
2022-12-03T20:46:08.168Z,-0.34
2022-12-03T20:48:35.019Z,-0.32
2022-12-03T20:51:13.309Z,-0.32
2022-12-03T20:53:40.019Z,-0.34
2022-12-03T20:56:07.416Z,-0.37
2022-12-03T20:58:34.861Z,-0.36
2022-12-03T21:01:19.341Z,-0.38
2022-12-03T21:03:46.709Z,-0.39
2022-12-03T21:06:14.048Z,-0.38
2022-12-03T21:08:42.479Z,-0.40
2022-12-03T21:11:10.340Z,-0.40
2022-12-03T21:13:36.797Z,-0.40
2022-12-03T21:16:08.173Z,-0.42
2022-12-03T21:18:34.988Z,-0.41
2022-12-03T21:21:02.710Z,-0.42
2022-12-03T21:23:30.354Z,-0.43
2022-12-03T21:26:08.535Z,-0.42
2022-12-03T21:28:35.148Z,-0.42
2022-12-03T21:31:07.492Z,-0.41
2022-12-03T21:33:34.869Z,-0.43
2022-12-03T21:36:01.737Z,-0.43
2022-12-03T21:38:29.274Z,-0.43
2022-12-03T21:40:56.505Z,-0.43
2022-12-03T21:43:23.648Z,-0.43
2022-12-03T21:45:50.180Z,-0.43
2022-12-03T21:48:17.744Z,-0.43
2022-12-03T21:50:45.081Z,-0.43
2022-12-03T21:53:12.102Z,-0.44
2022-12-03T21:55:43.027Z,-0.44
2022-12-03T21:58:09.429Z,-0.43
2022-12-03T22:00:35.805Z,-0.43
2022-12-03T22:03:02.217Z,-0.44
2022-12-03T22:05:28.624Z,-0.45
2022-12-03T22:07:55.025Z,-0.43
2022-12-03T22:10:21.463Z,-0.44
2022-12-03T22:12:47.874Z,-0.43
2022-12-03T22:15:18.819Z,-0.43
2022-12-03T22:17:45.695Z,-0.45
2022-12-03T22:20:12.520Z,-0.46
2022-12-03T22:22:38.956Z,-0.45
2022-12-03T22:25:05.557Z,-0.46
2022-12-03T22:27:31.955Z,-0.47
2022-12-03T22:29:58.412Z,-0.46
2022-12-03T22:32:24.915Z,-0.47
2022-12-03T22:34:51.459Z,-0.46
2022-12-03T22:37:17.862Z,-0.47
2022-12-03T22:39:44.228Z,-0.44
2022-12-03T22:42:10.589Z,-0.43
2022-12-03T22:44:36.901Z,-0.43
2022-12-03T22:47:03.583Z,-0.40
2022-12-03T22:49:30.001Z,-0.42
2022-12-03T22:51:56.343Z,-0.41
2022-12-03T22:54:24.270Z,-0.42
2022-12-03T22:56:50.840Z,-0.40
2022-12-03T22:59:17.428Z,-0.37
2022-12-03T23:01:43.889Z,-0.36
2022-12-03T23:04:11.116Z,-0.35
2022-12-03T23:06:37.931Z,-0.34
2022-12-03T23:09:06.921Z,-0.32
2022-12-03T23:11:33.957Z,-0.34
2022-12-03T23:14:00.721Z,-0.34
2022-12-03T23:16:30.352Z,-0.36
2022-12-03T23:19:01.273Z,-0.37
2022-12-03T23:21:30.850Z,-0.39
2022-12-03T23:23:59.121Z,-0.40
2022-12-03T23:26:25.845Z,-0.39
2022-12-03T23:28:52.514Z,-0.38
2022-12-03T23:31:28.034Z,-0.37
2022-12-03T23:33:55.674Z,-0.38
2022-12-03T23:36:24.175Z,-0.38
2022-12-03T23:38:50.601Z,-0.36
2022-12-03T23:41:19.600Z,-0.37
2022-12-03T23:43:46.263Z,-0.40
2022-12-03T23:46:18.661Z,-0.36
2022-12-03T23:48:45.617Z,-0.37
2022-12-03T23:51:18.355Z,-0.37
2022-12-03T23:53:45.594Z,-0.39
2022-12-03T23:56:15.533Z,-0.37
2022-12-03T23:58:42.178Z,-0.36
